Current Conditions
Partly Cloudy
Conditions



Pressure
1011.92 (mb) - 29.88 (inHG)
Visibility

10.0 (km) - 6.2 (miles)
Temperature
8  °C
Temperature
2  °C
Dewpoint
66  %
 Humidity
Wind Speed
39  km/h
21  kts
24  mph
10.7  m/s
Wind Direction
N
45°
E
90°
135°
S
180°
225°
W
270°
315°
 260°

Due West
Airport Data
LEAS
Asturias Airport
Metar :LEAS 081130Z 26021G35KT 9999 FEW040 SCT052 BKN070 08/02 Q1012 TEMPO 3000 SHRA SCT025TCU
Wed 8th December 13:30 pm
Raw Metar Info
Raw METAR is the most common format in the world for the transmission of observational weather data. It is highly standardized through the International Civil Aviation Organization (ICAO), which allows it to be understood throughout most of the world.
API Info
Data Provided by
https://www.checkwx.com/weather/LEAS

Aviation Weather providing METAR, TAF, AIRMET, SIGMET and OUTLOOK Weather Reports
© Info
CSS/SVG/PHP scripts were developed by weather34.com for use in the weather34 template © 2015-2021

Guide Info provided by Metar-Wikipedia